Time;durP1;ratioP1;P1;durP2;ratioP2;P2;SDS_P1;SDS_P2;PMS_P1;PMS_P2;Temp;Humidity;BMP_temperature;BMP_pressure;BME280_temperature;BME280_humidity;BME280_pressure;Samples;Min_cycle;Max_cycle;Signal;HPM_P1;HPM_P2
2023/09/27 00:02:07;;;;;;;25.50;21.90;;;;;;;13.64;100.00;101865.09;5059781;28;20159;-63
2023/09/27 00:04:32;;;;;;;25.73;21.88;;;;;;;13.63;100.00;101873.72;5066005;28;20037;-63
2023/09/27 00:06:58;;;;;;;26.50;21.50;;;;;;;13.57;100.00;101872.97;5067684;28;20025;-63
2023/09/27 00:09:23;;;;;;;24.58;21.02;;;;;;;13.59;100.00;101881.03;5050602;28;20388;-63
2023/09/27 00:11:48;;;;;;;26.20;22.10;;;;;;;13.62;100.00;101883.19;5058502;28;20028;-63
2023/09/27 00:14:14;;;;;;;26.50;22.55;;;;;;;13.63;100.00;101885.69;5067533;28;20028;-63
2023/09/27 00:16:39;;;;;;;26.88;22.17;;;;;;;13.64;100.00;101892.06;5050889;28;20033;-63
2023/09/27 00:19:05;;;;;;;26.67;21.58;;;;;;;13.62;100.00;101885.97;5054503;28;20122;-63
2023/09/27 00:21:30;;;;;;;27.25;22.20;;;;;;;13.62;100.00;101889.59;5052094;28;20024;-63
2023/09/27 00:23:56;;;;;;;26.30;22.48;;;;;;;13.61;100.00;101890.72;5069526;28;20490;-63
2023/09/27 00:26:21;;;;;;;26.52;23.13;;;;;;;13.63;100.00;101887.63;5052083;28;20021;-63
2023/09/27 00:28:46;;;;;;;29.20;22.98;;;;;;;13.63;100.00;101894.03;5059228;28;20094;-63
2023/09/27 00:31:14;;;;;;;26.13;22.20;;;;;;;13.61;100.00;101890.72;5052009;28;20063;-63
2023/09/27 00:33:39;;;;;;;24.92;20.65;;;;;;;13.64;100.00;101889.28;5064014;28;20079;-63
2023/09/27 00:36:05;;;;;;;24.15;20.80;;;;;;;13.69;100.00;101892.00;5070535;28;20025;-63
2023/09/27 00:38:30;;;;;;;25.08;21.67;;;;;;;13.68;100.00;101882.00;5071755;28;20101;-63
2023/09/27 00:40:55;;;;;;;24.20;21.52;;;;;;;13.69;100.00;101878.91;5070851;28;20052;-63
2023/09/27 00:43:28;;;;;;;25.88;20.85;;;;;;;13.67;100.00;101886.72;5060043;28;20112;-63
2023/09/27 00:45:59;;;;;;;26.70;21.20;;;;;;;13.67;100.00;101891.47;5069420;28;20037;-63
2023/09/27 00:48:25;;;;;;;28.10;21.45;;;;;;;13.63;100.00;101885.69;5070420;28;20112;-63
2023/09/27 00:50:52;;;;;;;26.25;22.55;;;;;;;13.61;100.00;101887.94;5065729;28;20423;-63
2023/09/27 00:53:17;;;;;;;24.90;22.20;;;;;;;13.58;100.00;101880.19;5060872;28;20383;-63
2023/09/27 00:55:43;;;;;;;25.38;21.83;;;;;;;13.52;100.00;101884.19;5070186;28;20029;-63
2023/09/27 00:58:10;;;;;;;25.08;21.83;;;;;;;13.49;100.00;101888.41;5065480;28;20491;-63
2023/09/27 01:00:37;;;;;;;26.27;22.52;;;;;;;13.43;100.00;101874.88;5068466;28;20027;-63
2023/09/27 01:03:04;;;;;;;28.73;23.13;;;;;;;13.38;100.00;101870.19;5071702;28;20028;-63
2023/09/27 01:05:29;;;;;;;24.90;21.73;;;;;;;13.33;100.00;101878.56;5049941;28;20032;-63
2023/09/27 01:07:54;;;;;;;26.10;22.83;;;;;;;13.32;100.00;101871.38;5033512;28;20079;-63
2023/09/27 01:10:20;;;;;;;26.00;22.23;;;;;;;13.30;100.00;101881.97;5065355;28;20127;-63
2023/09/27 01:12:45;;;;;;;26.80;23.25;;;;;;;13.24;100.00;101870.09;5065759;28;20357;-63
2023/09/27 01:15:11;;;;;;;25.90;23.10;;;;;;;13.22;100.00;101869.56;5064845;28;20043;-63
2023/09/27 01:17:36;;;;;;;26.67;22.90;;;;;;;13.19;100.00;101868.22;5071566;28;20021;-63
2023/09/27 01:20:01;;;;;;;27.65;23.55;;;;;;;13.16;100.00;101871.59;5062205;28;20059;-61
2023/09/27 01:22:27;;;;;;;28.48;23.80;;;;;;;13.10;100.00;101868.03;5057351;28;20135;-63
2023/09/27 01:24:54;;;;;;;26.55;23.33;;;;;;;13.05;100.00;101870.06;5063148;28;20029;-63
2023/09/27 01:27:20;;;;;;;26.80;22.40;;;;;;;13.03;100.00;101873.16;5067543;28;20048;-63
2023/09/27 01:29:45;;;;;;;26.00;22.98;;;;;;;12.99;100.00;101855.41;5070873;28;20146;-63
2023/09/27 01:32:10;;;;;;;26.17;21.88;;;;;;;12.97;100.00;101849.34;5053175;28;20067;-63
2023/09/27 01:34:36;;;;;;;27.02;22.42;;;;;;;12.97;100.00;101845.72;5054589;28;20388;-62
2023/09/27 01:37:01;;;;;;;25.92;22.35;;;;;;;12.96;100.00;101844.91;5071131;28;20032;-62
2023/09/27 01:39:28;;;;;;;27.30;22.42;;;;;;;12.90;100.00;101833.03;5052160;28;20105;-63
2023/09/27 01:41:53;;;;;;;26.08;23.27;;;;;;;12.83;100.00;101842.84;5066949;28;20047;-63
2023/09/27 01:44:19;;;;;;;26.63;23.02;;;;;;;12.82;100.00;101841.19;5066770;28;20135;-63
2023/09/27 01:46:44;;;;;;;25.95;22.35;;;;;;;12.79;100.00;101831.50;5051171;28;20775;-63
2023/09/27 01:49:09;;;;;;;26.58;21.80;;;;;;;12.78;100.00;101830.72;5059941;28;20470;-63
2023/09/27 01:51:35;;;;;;;25.05;21.45;;;;;;;12.74;100.00;101828.81;5052503;28;20127;-63
2023/09/27 01:54:02;;;;;;;26.05;21.75;;;;;;;12.73;100.00;101839.09;5052542;28;20029;-63
2023/09/27 01:56:27;;;;;;;27.80;22.58;;;;;;;12.68;100.00;101844.72;5062457;28;20035;-63
2023/09/27 01:58:52;;;;;;;25.90;22.02;;;;;;;12.68;100.00;101850.25;5066997;28;20025;-63
2023/09/27 02:01:18;;;;;;;26.83;22.38;;;;;;;12.67;100.00;101839.44;5065855;28;20021;-63
2023/09/27 02:03:44;;;;;;;26.40;21.83;;;;;;;12.65;100.00;101856.41;5058986;28;20031;-63
2023/09/27 02:06:09;;;;;;;25.15;21.83;;;;;;;12.61;100.00;101849.81;5060643;28;20031;-63
2023/09/27 02:08:35;;;;;;;27.02;22.30;;;;;;;12.61;100.00;101842.28;5073091;28;20139;-63
2023/09/27 02:11:00;;;;;;;26.98;22.85;;;;;;;12.59;100.00;101847.31;5061163;28;20025;-63
2023/09/27 02:13:25;;;;;;;25.48;22.02;;;;;;;12.57;100.00;101834.84;5061233;28;20039;-63
2023/09/27 02:15:54;;;;;;;26.05;22.20;;;;;;;12.51;100.00;101836.03;5069842;28;20112;-63
2023/09/27 02:18:19;;;;;;;26.17;21.83;;;;;;;12.48;100.00;101845.75;5064020;28;20108;-63
2023/09/27 02:20:45;;;;;;;27.35;22.27;;;;;;;12.44;100.00;101837.19;5072559;28;20115;-63
2023/09/27 02:23:10;;;;;;;27.08;22.67;;;;;;;12.42;100.00;101849.72;5074290;28;20131;-63
2023/09/27 02:25:36;;;;;;;26.73;22.33;;;;;;;12.40;100.00;101840.84;5069068;28;20105;-63
2023/09/27 02:28:02;;;;;;;25.60;22.10;;;;;;;12.36;100.00;101848.13;5063100;28;20052;-62
2023/09/27 02:30:28;;;;;;;25.55;21.73;;;;;;;12.32;100.00;101851.47;5066417;28;20037;-63
2023/09/27 02:32:53;;;;;;;27.10;22.80;;;;;;;12.27;100.00;101854.31;5054362;28;20044;-63
2023/09/27 02:35:19;;;;;;;27.30;23.00;;;;;;;12.24;100.00;101837.41;5058777;28;20556;-63
2023/09/27 02:37:45;;;;;;;27.35;23.17;;;;;;;12.19;100.00;101843.03;5054384;28;20094;-63
2023/09/27 02:40:14;;;;;;;26.10;21.90;;;;;;;12.22;100.00;101846.03;5057082;28;20044;-63
2023/09/27 02:42:41;;;;;;;26.23;21.88;;;;;;;12.24;100.00;101856.81;5068285;28;20029;-63
2023/09/27 02:45:08;;;;;;;24.83;20.95;;;;;;;12.22;100.00;101848.00;5064808;28;20020;-63
2023/09/27 02:47:34;;;;;;;24.27;21.25;;;;;;;12.21;100.00;101847.16;5064433;28;20044;-63
2023/09/27 02:49:59;;;;;;;27.75;23.27;;;;;;;12.20;100.00;101839.13;5073942;28;20040;-63
2023/09/27 02:52:24;;;;;;;28.33;23.00;;;;;;;12.20;100.00;101850.22;5073761;28;20111;-64
2023/09/27 02:54:50;;;;;;;26.20;22.63;;;;;;;12.21;100.00;101851.88;5073873;28;20029;-63
2023/09/27 02:57:16;;;;;;;26.65;21.58;;;;;;;12.22;100.00;101857.13;5065304;28;20166;-63
2023/09/27 02:59:41;;;;;;;25.77;21.05;;;;;;;12.19;100.00;101849.38;5073858;28;20028;-63
2023/09/27 03:02:06;;;;;;;25.58;21.13;;;;;;;12.17;100.00;101840.56;5073045;28;20024;-63
2023/09/27 03:04:31;;;;;;;25.50;21.52;;;;;;;12.14;100.00;101844.72;5073704;28;20032;-63
2023/09/27 03:06:57;;;;;;;25.73;22.55;;;;;;;12.12;100.00;101848.91;5073117;28;20429;-63
2023/09/27 03:09:23;;;;;;;26.83;23.02;;;;;;;12.08;100.00;101848.66;5073065;28;20033;-62
2023/09/27 03:11:48;;;;;;;26.23;22.30;;;;;;;12.05;100.00;101845.66;5072072;28;20436;-63
2023/09/27 03:14:14;;;;;;;26.73;21.98;;;;;;;12.04;100.00;101850.38;5058508;28;20161;-63
2023/09/27 03:16:39;;;;;;;25.42;22.20;;;;;;;12.04;100.00;101850.38;5073049;28;20428;-63
2023/09/27 03:19:05;;;;;;;25.85;21.60;;;;;;;12.04;100.00;101839.28;5063876;28;20033;-63
2023/09/27 03:21:30;;;;;;;25.45;22.23;;;;;;;12.02;100.00;101834.00;5055941;28;20028;-63
2023/09/27 03:23:56;;;;;;;25.77;21.50;;;;;;;12.07;100.00;101835.09;5054316;28;20338;-63
2023/09/27 03:26:22;;;;;;;25.38;21.38;;;;;;;12.06;100.00;101839.81;5057536;28;20032;-63
2023/09/27 03:28:50;;;;;;;24.45;20.50;;;;;;;12.10;100.00;101845.59;5071872;28;20376;-63
2023/09/27 03:31:15;;;;;;;26.50;22.65;;;;;;;12.11;100.00;101848.09;5073491;28;20029;-62
2023/09/27 03:33:40;;;;;;;25.83;21.60;;;;;;;12.07;100.00;101848.97;5057199;28;20036;-63
2023/09/27 03:36:07;;;;;;;24.65;21.83;;;;;;;12.06;100.00;101856.44;5053113;28;20029;-63
2023/09/27 03:38:32;;;;;;;27.05;22.35;;;;;;;12.04;100.00;101858.72;5067762;28;20025;-63
2023/09/27 03:40:57;;;;;;;26.15;22.10;;;;;;;12.00;100.00;101863.97;5073050;28;20380;-63
2023/09/27 03:43:23;;;;;;;27.50;23.58;;;;;;;11.99;100.00;101867.06;5064556;28;20043;-63
2023/09/27 03:45:49;;;;;;;25.83;22.70;;;;;;;11.96;100.00;101876.75;5069345;28;20103;-63
2023/09/27 03:48:14;;;;;;;24.88;21.33;;;;;;;11.93;100.00;101874.56;5066577;28;20077;-63
2023/09/27 03:50:40;;;;;;;25.70;21.80;;;;;;;11.91;100.00;101874.00;5073122;28;20388;-63
2023/09/27 03:53:05;;;;;;;26.05;21.45;;;;;;;11.90;100.00;101874.31;5058952;28;20032;-63
2023/09/27 03:55:30;;;;;;;24.80;21.15;;;;;;;11.86;100.00;101871.28;5073672;28;20028;-63
2023/09/27 03:57:56;;;;;;;25.13;21.45;;;;;;;11.83;100.00;101866.31;5061530;28;20421;-63
2023/09/27 04:00:21;;;;;;;25.27;21.13;;;;;;;11.83;100.00;101858.00;5068338;28;20115;-63
2023/09/27 04:02:47;;;;;;;26.50;21.23;;;;;;;11.80;100.00;101864.16;5073033;28;20032;-63
2023/09/27 04:05:14;;;;;;;24.30;21.30;;;;;;;11.77;100.00;101865.53;5070623;28;20030;-63
2023/09/27 04:07:41;;;;;;;26.38;21.63;;;;;;;11.73;100.00;101867.25;5071800;28;20025;-63
2023/09/27 04:10:07;;;;;;;25.95;21.67;;;;;;;11.75;100.00;101875.25;5062762;28;20036;-63
2023/09/27 04:12:33;;;;;;;24.60;21.15;;;;;;;11.71;100.00;101880.56;5069099;28;20036;-62
2023/09/27 04:14:58;;;;;;;24.48;20.83;;;;;;;11.73;100.00;101888.56;5066249;28;20028;-63
2023/09/27 04:17:24;;;;;;;26.02;21.02;;;;;;;11.69;100.00;101891.09;5072961;28;20570;-63
2023/09/27 04:19:50;;;;;;;25.45;21.30;;;;;;;11.63;100.00;101893.06;5057168;28;20032;-63
2023/09/27 04:22:15;;;;;;;26.02;21.73;;;;;;;11.65;100.00;101893.63;5052829;28;20079;-63
2023/09/27 04:24:41;;;;;;;26.42;21.27;;;;;;;11.63;100.00;101893.06;5070241;28;20032;-63
2023/09/27 04:27:06;;;;;;;26.50;21.77;;;;;;;11.60;100.00;101871.50;5056447;28;20028;-63
2023/09/27 04:29:31;;;;;;;25.83;22.70;;;;;;;11.59;100.00;101874.53;5068263;28;20031;-63
2023/09/27 04:31:57;;;;;;;26.73;21.35;;;;;;;11.57;100.00;101879.56;5053963;28;20429;-63
2023/09/27 04:34:23;;;;;;;25.27;21.98;;;;;;;11.54;100.00;101889.25;5067209;28;20460;-63
2023/09/27 04:36:49;;;;;;;24.25;21.30;;;;;;;11.54;100.00;101892.03;5057044;28;20098;-63
2023/09/27 04:39:17;;;;;;;25.05;21.77;;;;;;;11.50;100.00;101899.28;5066282;28;20047;-63
2023/09/27 04:41:43;;;;;;;25.17;21.38;;;;;;;11.46;100.00;101903.72;5072718;28;20336;-63
2023/09/27 04:44:09;;;;;;;25.35;21.30;;;;;;;11.45;100.00;101907.59;5060478;28;20041;-63
2023/09/27 04:46:34;;;;;;;25.70;22.33;;;;;;;11.43;100.00;101907.91;5071190;28;20520;-63
2023/09/27 04:48:59;;;;;;;28.27;22.33;;;;;;;11.43;100.00;101913.44;5055480;28;20040;-63
2023/09/27 04:51:24;;;;;;;26.88;22.02;;;;;;;11.44;100.00;101914.25;5034834;28;20460;-63
2023/09/27 04:53:50;;;;;;;25.88;22.60;;;;;;;11.42;100.00;101911.78;5055522;28;20025;-63
2023/09/27 04:56:15;;;;;;;26.38;21.67;;;;;;;11.39;100.00;101898.50;5068143;28;20025;-63
2023/09/27 04:58:43;;;;;;;27.02;22.55;;;;;;;11.37;100.00;101870.25;5061241;28;20501;-63
2023/09/27 05:01:09;;;;;;;26.50;22.55;;;;;;;11.41;100.00;101853.88;5054486;28;20065;-65
2023/09/27 05:03:35;;;;;;;26.70;22.77;;;;;;;11.42;100.00;101881.31;5065813;28;20028;-63
2023/09/27 05:06:01;;;;;;;26.92;23.27;;;;;;;11.46;100.00;101892.63;5067582;28;20031;-63
2023/09/27 05:08:27;;;;;;;26.02;22.13;;;;;;;11.43;100.00;101894.03;5057134;28;20031;-63
2023/09/27 05:10:52;;;;;;;27.08;22.55;;;;;;;11.45;100.00;101894.59;5070300;28;20036;-63
2023/09/27 05:13:21;;;;;;;26.80;22.05;;;;;;;11.45;100.00;101886.28;5070532;28;20104;-63
2023/09/27 05:15:52;;;;;;;25.35;22.15;;;;;;;11.43;100.00;101882.97;5070868;28;20056;-63
2023/09/27 05:18:17;;;;;;;26.42;22.65;;;;;;;11.39;100.00;101885.47;5070770;28;20383;-62
2023/09/27 05:20:45;;;;;;;24.83;21.65;;;;;;;11.39;100.00;101890.19;5059368;28;20039;-62
2023/09/27 05:23:11;;;;;;;26.88;22.13;;;;;;;11.35;100.00;101889.94;5052745;28;20052;-63
2023/09/27 05:25:37;;;;;;;25.58;22.65;;;;;;;11.36;100.00;101882.47;5064968;28;20029;-63
2023/09/27 05:28:03;;;;;;;25.98;22.55;;;;;;;11.36;100.00;101877.72;5070834;28;20055;-63
2023/09/27 05:30:28;;;;;;;26.70;22.83;;;;;;;11.37;100.00;101876.63;5070241;28;20039;-63
2023/09/27 05:32:53;;;;;;;25.42;22.25;;;;;;;11.36;100.00;101872.19;5066134;28;20032;-63
2023/09/27 05:35:19;;;;;;;25.60;22.10;;;;;;;11.37;100.00;101861.94;5062173;28;20025;-63
2023/09/27 05:37:44;;;;;;;25.13;21.45;;;;;;;11.38;100.00;101869.97;5056051;28;20033;-63
2023/09/27 05:40:10;;;;;;;26.88;21.00;;;;;;;11.38;100.00;101869.16;5055253;28;20384;-63
2023/09/27 05:42:37;;;;;;;25.55;21.35;;;;;;;11.41;100.00;101876.06;5073732;28;20032;-63
2023/09/27 05:45:04;;;;;;;26.17;21.45;;;;;;;11.42;100.00;101884.06;5074103;28;20101;-62
2023/09/27 05:47:29;;;;;;;25.02;20.73;;;;;;;11.43;100.00;101879.38;5071062;28;20029;-63
2023/09/27 05:49:54;;;;;;;24.85;20.95;;;;;;;11.42;100.00;101874.94;5055466;28;20040;-62
2023/09/27 05:52:20;;;;;;;25.13;20.95;;;;;;;11.40;100.00;101872.44;5061502;28;20028;-62
2023/09/27 05:54:46;;;;;;;25.08;20.70;;;;;;;11.44;100.00;101868.00;5067428;28;20032;-62
2023/09/27 05:57:12;;;;;;;26.27;21.50;;;;;;;11.44;100.00;101854.13;5072665;28;20054;-62
2023/09/27 05:59:40;;;;;;;24.45;20.10;;;;;;;11.49;100.00;101853.28;5049625;28;20036;-62
2023/09/27 06:02:06;;;;;;;24.60;20.60;;;;;;;11.55;100.00;101860.44;5055419;28;20041;-62
2023/09/27 06:04:32;;;;;;;26.33;21.05;;;;;;;11.59;100.00;101858.75;5056165;28;20394;-62
2023/09/27 06:06:58;;;;;;;25.75;20.92;;;;;;;11.64;100.00;101847.63;5073549;28;20090;-61
2023/09/27 06:09:24;;;;;;;26.73;21.42;;;;;;;11.66;100.00;101852.88;5073982;28;20040;-62
2023/09/27 06:11:49;;;;;;;29.75;22.95;;;;;;;11.69;100.00;101846.75;5063611;28;20032;-61
2023/09/27 06:14:15;;;;;;;26.60;21.52;;;;;;;11.71;100.00;101858.38;5063109;28;20028;-62
2023/09/27 06:16:42;;;;;;;26.63;21.25;;;;;;;11.71;100.00;101861.16;5069874;28;20095;-62
2023/09/27 06:19:09;;;;;;;26.73;21.52;;;;;;;11.70;100.00;101849.25;5054264;28;20526;-62
2023/09/27 06:21:35;;;;;;;26.45;21.85;;;;;;;11.74;100.00;101851.44;5067105;28;20452;-62
2023/09/27 06:24:00;;;;;;;26.42;21.25;;;;;;;11.82;100.00;101857.19;5095255;28;20035;-62
2023/09/27 06:26:25;;;;;;;25.52;20.65;;;;;;;11.91;100.00;101862.09;5077416;28;20085;-62
2023/09/27 06:28:51;;;;;;;26.25;20.98;;;;;;;11.96;100.00;101853.72;5067965;28;20468;-65
2023/09/27 06:31:16;;;;;;;26.63;21.13;;;;;;;12.11;100.00;101850.88;5073798;28;20056;-63
2023/09/27 06:33:45;;;;;;;26.38;21.90;;;;;;;12.21;100.00;101854.66;5060863;28;20029;-62
2023/09/27 06:36:11;;;;;;;26.55;21.77;;;;;;;12.32;100.00;101851.47;5060202;28;20461;-62
2023/09/27 06:38:37;;;;;;;26.20;21.30;;;;;;;12.41;100.00;101848.91;5063984;28;20025;-62
2023/09/27 06:41:03;;;;;;;26.92;21.02;;;;;;;12.51;100.00;101850.72;5062442;28;20056;-63
2023/09/27 06:43:30;;;;;;;28.35;21.92;;;;;;;12.56;100.00;101845.13;5072267;28;20032;-63
2023/09/27 06:45:56;;;;;;;26.65;21.70;;;;;;;12.66;100.00;101846.13;5061253;28;20021;-63
2023/09/27 06:48:23;;;;;;;27.45;22.98;;;;;;;12.74;100.00;101837.97;5063501;28;20474;-63
2023/09/27 06:50:49;;;;;;;27.48;22.88;;;;;;;12.87;100.00;101841.16;5064946;28;20032;-63
2023/09/27 06:53:15;;;;;;;28.73;23.48;;;;;;;13.02;100.00;101848.47;5064418;28;20037;-63
2023/09/27 06:55:41;;;;;;;29.58;23.20;;;;;;;13.16;100.00;101856.88;5061470;28;20028;-63
2023/09/27 06:58:07;;;;;;;29.02;23.98;;;;;;;13.27;100.00;101858.41;5061643;28;20032;-62
2023/09/27 07:00:32;;;;;;;29.25;23.70;;;;;;;13.35;100.00;101863.28;5057049;28;20043;-62
2023/09/27 07:02:58;;;;;;;28.98;23.83;;;;;;;13.41;100.00;101866.84;5057352;28;20036;-62
2023/09/27 07:05:23;;;;;;;30.02;23.83;;;;;;;13.46;100.00;101868.72;5061921;28;20029;-62
2023/09/27 07:07:50;;;;;;;26.63;23.67;;;;;;;13.50;100.00;101859.47;5065063;28;20025;-62
2023/09/27 07:10:16;;;;;;;27.27;24.02;;;;;;;13.56;100.00;101858.25;5060920;28;20020;-63
2023/09/27 07:12:41;;;;;;;28.08;24.33;;;;;;;13.66;100.00;101857.25;5048027;28;20105;-63
2023/09/27 07:15:13;;;;;;;28.42;24.75;;;;;;;13.68;100.00;101868.09;5058840;28;20055;-63
2023/09/27 07:17:39;;;;;;;29.48;23.73;;;;;;;13.69;100.00;101862.22;5059217;28;20035;-63
2023/09/27 07:20:20;;;;;;;27.83;24.48;;;;;;;13.72;100.00;101867.19;5062424;28;20144;-63
2023/09/27 07:22:47;;;;;;;29.35;24.85;;;;;;;13.73;100.00;101868.00;5066128;28;20030;-63
2023/09/27 07:25:16;;;;;;;27.85;24.67;;;;;;;13.75;100.00;101868.53;5059135;28;20021;-63
2023/09/27 07:27:42;;;;;;;28.83;24.50;;;;;;;13.75;100.00;101870.47;5060642;28;20036;-63
2023/09/27 07:30:10;;;;;;;29.25;25.58;;;;;;;13.77;100.00;101882.13;5057782;28;20111;-63
2023/09/27 07:32:37;;;;;;;28.38;25.27;;;;;;;13.77;100.00;101887.69;5061588;28;20036;-63
2023/09/27 07:35:04;;;;;;;30.58;24.48;;;;;;;13.77;100.00;101880.19;5054326;28;20039;-63
2023/09/27 07:37:32;;;;;;;31.00;25.98;;;;;;;13.84;100.00;101874.22;5052574;28;20056;-63
2023/09/27 07:39:57;;;;;;;29.98;26.67;;;;;;;13.83;100.00;101867.84;5060093;28;20055;-63
2023/09/27 07:42:23;;;;;;;30.83;27.63;;;;;;;13.86;100.00;101860.84;5072457;28;20021;-63
2023/09/27 07:44:48;;;;;;;30.20;25.92;;;;;;;13.87;100.00;101868.06;5058101;28;20063;-63
2023/09/27 07:47:13;;;;;;;30.52;27.20;;;;;;;13.88;100.00;101866.94;5066922;28;20783;-63
2023/09/27 07:49:39;;;;;;;35.13;31.33;;;;;;;13.94;100.00;101853.75;5063572;28;20087;-63
2023/09/27 07:52:04;;;;;;;32.15;28.65;;;;;;;14.02;100.00;101848.34;5072295;28;20028;-63
2023/09/27 07:54:30;;;;;;;32.58;29.05;;;;;;;14.09;100.00;101858.25;5071911;28;20059;-63
2023/09/27 07:56:58;;;;;;;31.58;28.05;;;;;;;14.17;100.00;101866.69;5056322;28;20085;-63
2023/09/27 07:59:24;;;;;;;30.35;27.05;;;;;;;14.25;100.00;101854.03;5052193;28;20048;-63
2023/09/27 08:01:49;;;;;;;32.47;28.33;;;;;;;14.34;100.00;101859.72;5052092;28;20063;-63
2023/09/27 08:04:15;;;;;;;31.27;27.88;;;;;;;14.42;100.00;101869.31;5050445;28;20032;-63
2023/09/27 08:06:41;;;;;;;31.02;27.73;;;;;;;14.48;100.00;101865.31;5052225;28;20442;-63
2023/09/27 08:09:06;;;;;;;31.08;27.77;;;;;;;14.58;100.00;101865.13;5052724;28;20040;-66
2023/09/27 08:11:32;;;;;;;31.77;28.38;;;;;;;14.70;100.00;101864.63;5052271;28;20033;-64
2023/09/27 08:13:57;;;;;;;33.70;29.88;;;;;;;14.82;100.00;101864.94;5052052;28;20035;-64
2023/09/27 08:16:22;;;;;;;33.08;29.67;;;;;;;14.96;100.00;101869.66;5051858;28;20021;-64
2023/09/27 08:18:47;;;;;;;30.13;26.35;;;;;;;15.08;100.00;101869.13;5051746;28;20391;-64
2023/09/27 08:21:13;;;;;;;32.03;27.60;;;;;;;15.22;100.00;101875.53;5067283;28;20631;-64
2023/09/27 08:23:39;;;;;;;30.67;26.95;;;;;;;15.34;100.00;101877.75;5071485;28;20028;-64
2023/09/27 08:26:05;;;;;;;29.23;26.02;;;;;;;15.43;100.00;101887.03;5071403;28;20040;-63
2023/09/27 08:28:31;;;;;;;30.33;27.13;;;;;;;15.45;100.00;101886.69;5053092;28;20031;-62
2023/09/27 08:31:00;;;;;;;29.85;26.70;;;;;;;15.58;100.00;101894.22;5071430;28;20024;-63
2023/09/27 08:33:26;;;;;;;29.48;26.27;;;;;;;15.75;100.00;101895.50;5071235;28;20036;-61
2023/09/27 08:35:54;;;;;;;29.75;26.50;;;;;;;15.87;100.00;101908.94;5050770;28;20475;-62
2023/09/27 08:38:20;;;;;;;29.52;26.38;;;;;;;16.00;100.00;101905.25;5051629;28;20036;-62
2023/09/27 08:40:48;;;;;;;29.05;25.80;;;;;;;16.12;100.00;101901.06;5053149;28;20057;-62
2023/09/27 08:43:16;;;;;;;29.23;24.88;;;;;;;16.25;100.00;101897.34;5070903;28;20514;-62
2023/09/27 08:45:45;;;;;;;28.73;25.60;;;;;;;16.39;100.00;101908.41;5070147;28;20032;-64
2023/09/27 08:48:13;;;;;;;28.52;24.42;;;;;;;16.62;100.00;101912.00;5062947;28;20119;-61
2023/09/27 08:50:38;;;;;;;28.02;24.92;;;;;;;16.80;100.00;101912.91;5071193;28;20033;-62
2023/09/27 08:53:04;;;;;;;27.17;23.50;;;;;;;16.97;100.00;101906.59;5069601;28;20121;-63
2023/09/27 08:55:30;;;;;;;28.08;24.05;;;;;;;17.17;100.00;101907.13;5062473;28;20075;-63
2023/09/27 08:57:56;;;;;;;26.80;23.15;;;;;;;17.34;100.00;101897.13;5052389;28;20453;-63
2023/09/27 09:00:26;;;;;;;30.48;24.00;;;;;;;17.39;100.00;101896.94;5061938;28;20028;-63
2023/09/27 09:02:57;;;;;;;28.33;24.10;;;;;;;17.51;100.00;101893.53;5071066;28;20416;-63
2023/09/27 09:05:24;;;;;;;29.38;23.90;;;;;;;17.61;100.00;101890.41;5070897;28;20032;-63
2023/09/27 09:07:50;;;;;;;26.85;23.55;;;;;;;17.81;100.00;101891.69;5070882;28;20452;-62
2023/09/27 09:10:17;;;;;;;28.85;23.52;;;;;;;17.96;100.00;101893.19;5080039;28;20032;-63
2023/09/27 09:12:47;;;;;;;27.75;23.50;;;;;;;18.06;100.00;101889.22;5090921;28;20482;-63
2023/09/27 09:15:35;;;;;;;29.02;24.20;;;;;;;18.23;100.00;101886.38;5083754;28;20029;-62
2023/09/27 09:18:06;;;;;;;28.98;23.83;;;;;;;18.33;100.00;101885.22;5070868;28;20112;-63
2023/09/27 09:20:41;;;;;;;27.33;24.35;;;;;;;18.38;100.00;101881.41;5070650;28;20032;-63
2023/09/27 09:23:12;;;;;;;27.48;23.63;;;;;;;18.47;100.00;101870.16;5063541;28;20119;-63
2023/09/27 09:25:43;;;;;;;27.00;24.10;;;;;;;18.49;100.00;101868.69;5062683;28;20045;-63
2023/09/27 09:28:09;;;;;;;29.05;26.00;;;;;;;18.43;100.00;101869.19;5062996;28;20040;-63
2023/09/27 09:30:39;;;;;;;28.45;25.35;;;;;;;18.44;100.00;101874.44;5070060;28;20036;-63
2023/09/27 09:33:36;;;;;;;29.58;26.45;;;;;;;18.59;100.00;101873.06;5070743;28;20451;-63
2023/09/27 09:36:02;;;;;;;29.40;26.38;;;;;;;18.63;100.00;101868.47;5089957;28;20043;-63
2023/09/27 09:38:30;;;;;;;30.88;27.63;;;;;;;18.67;100.00;101872.22;5090700;28;20044;-63
2023/09/27 09:40:57;;;;;;;29.50;26.38;;;;;;;18.79;100.00;101870.69;5090059;28;20403;-63
2023/09/27 09:43:29;;;;;;;29.00;25.58;;;;;;;18.81;100.00;101865.56;5089678;28;20469;-63
2023/09/27 09:45:55;;;;;;;27.65;24.52;;;;;;;18.79;100.00;101851.91;5090458;28;20541;-63
2023/09/27 09:48:21;;;;;;;28.45;25.45;;;;;;;18.79;100.00;101859.47;5090885;28;20039;-63
2023/09/27 09:50:49;;;;;;;28.70;24.02;;;;;;;18.77;100.00;101853.38;5073573;28;20128;-64
2023/09/27 09:53:16;;;;;;;28.30;25.20;;;;;;;18.90;100.00;101841.09;5070657;28;20468;-63
2023/09/27 09:55:42;;;;;;;28.30;25.20;;;;;;;19.06;100.00;101843.34;5070057;28;20039;-63
2023/09/27 09:58:21;;;;;;;27.70;22.10;;;;;;;19.16;100.00;101834.53;5071491;28;20116;-61
2023/09/27 10:00:51;;;;;;;25.75;21.80;;;;;;;19.28;99.44;101836.56;5071922;28;20128;-62
2023/09/27 10:03:20;;;;;;;25.15;21.38;;;;;;;19.40;99.35;101824.63;5071837;28;20048;-62
2023/09/27 10:05:50;;;;;;;24.80;20.48;;;;;;;19.53;97.51;101815.06;5072019;28;20119;-62
2023/09/27 10:08:16;;;;;;;25.80;21.55;;;;;;;19.75;97.86;101816.66;5071531;28;20043;-62
2023/09/27 10:10:41;;;;;;;24.90;20.45;;;;;;;19.84;94.38;101819.41;5071616;28;20453;-62
2023/09/27 10:13:09;;;;;;;25.95;21.02;;;;;;;19.85;93.30;101821.06;5071707;28;20031;-62
2023/09/27 10:15:35;;;;;;;25.92;19.52;;;;;;;19.92;92.03;101814.91;5071697;28;20036;-62
2023/09/27 10:18:22;;;;;;;24.60;20.38;;;;;;;20.00;94.08;101808.38;5071459;28;20083;-62
2023/09/27 10:21:03;;;;;;;25.10;18.77;;;;;;;20.10;93.24;101807.09;5072021;28;20096;-63
2023/09/27 10:23:34;;;;;;;24.13;18.88;;;;;;;20.23;91.33;101811.56;5071647;28;20535;-63
2023/09/27 10:26:28;;;;;;;24.25;19.88;;;;;;;20.41;91.38;101820.56;5088858;28;20103;-62
2023/09/27 10:29:22;;;;;;;23.33;18.80;;;;;;;20.53;89.69;101819.78;5063094;28;20095;-62
2023/09/27 10:32:15;;;;;;;24.90;18.65;;;;;;;20.70;89.97;101817.91;5037309;28;20427;-59
2023/09/27 10:34:41;;;;;;;22.57;17.80;;;;;;;20.85;85.94;101819.22;5052958;28;20060;-62
2023/09/27 10:37:07;;;;;;;24.90;18.80;;;;;;;21.00;84.90;101804.41;5075074;28;20028;-62
2023/09/27 10:39:33;;;;;;;21.98;17.15;;;;;;;21.13;84.29;101802.38;5074873;28;20105;-61
2023/09/27 10:41:58;;;;;;;24.05;18.27;;;;;;;21.19;84.23;101805.75;5071828;28;20464;-62
2023/09/27 10:44:34;;;;;;;24.55;18.40;;;;;;;21.14;83.19;101801.22;5057325;28;20070;-62
2023/09/27 10:47:01;;;;;;;23.80;18.33;;;;;;;21.19;84.77;101797.31;5066566;28;20040;-62
2023/09/27 10:49:32;;;;;;;23.60;18.15;;;;;;;21.26;85.08;101772.19;5046353;28;20064;-63
2023/09/27 10:51:58;;;;;;;23.08;18.17;;;;;;;21.32;84.58;101767.13;5067335;28;20076;-62
2023/09/27 10:54:24;;;;;;;22.85;18.70;;;;;;;21.31;84.13;101780.41;5056617;28;20082;-62
2023/09/27 10:56:56;;;;;;;22.42;17.98;;;;;;;21.42;84.73;101766.63;5046166;28;20074;-62
2023/09/27 10:59:26;;;;;;;23.98;18.70;;;;;;;21.44;83.14;101764.28;5057162;28;20033;-62
2023/09/27 11:01:52;;;;;;;22.80;18.35;;;;;;;21.47;83.31;101760.75;5060974;28;20021;-62